sensor_id;sensor_type;location;lat;lon;timestamp;temperature;humidity
23311;DHT22;11828;51.508;18.118;2022-11-12T00:00:46;25.40;29.90
23311;DHT22;11828;51.508;18.118;2022-11-12T00:03:14;25.50;30.00
23311;DHT22;11828;51.508;18.118;2022-11-12T00:05:40;25.50;29.90
23311;DHT22;11828;51.508;18.118;2022-11-12T00:08:06;25.50;30.00
23311;DHT22;11828;51.508;18.118;2022-11-12T00:10:32;25.60;29.90
23311;DHT22;11828;51.508;18.118;2022-11-12T00:12:58;25.60;29.90
23311;DHT22;11828;51.508;18.118;2022-11-12T00:15:25;25.60;29.80
23311;DHT22;11828;51.508;18.118;2022-11-12T00:17:51;25.60;29.70
23311;DHT22;11828;51.508;18.118;2022-11-12T00:20:17;25.60;29.60
23311;DHT22;11828;51.508;18.118;2022-11-12T00:22:43;25.50;29.50
23311;DHT22;11828;51.508;18.118;2022-11-12T00:25:10;25.60;29.40
23311;DHT22;11828;51.508;18.118;2022-11-12T00:27:35;25.50;29.40
23311;DHT22;11828;51.508;18.118;2022-11-12T00:30:02;25.50;29.50
23311;DHT22;11828;51.508;18.118;2022-11-12T00:32:29;25.40;29.60
23311;DHT22;11828;51.508;18.118;2022-11-12T00:34:55;25.30;29.60
23311;DHT22;11828;51.508;18.118;2022-11-12T00:37:21;25.30;29.60
23311;DHT22;11828;51.508;18.118;2022-11-12T00:39:49;25.20;29.60
23311;DHT22;11828;51.508;18.118;2022-11-12T00:42:16;25.20;29.60
23311;DHT22;11828;51.508;18.118;2022-11-12T00:44:42;25.20;29.70
23311;DHT22;11828;51.508;18.118;2022-11-12T00:47:08;25.20;29.80
23311;DHT22;11828;51.508;18.118;2022-11-12T00:49:34;25.20;29.80
23311;DHT22;11828;51.508;18.118;2022-11-12T00:52:00;25.00;29.80
23311;DHT22;11828;51.508;18.118;2022-11-12T00:54:26;24.90;29.90
23311;DHT22;11828;51.508;18.118;2022-11-12T00:56:52;24.80;30.00
23311;DHT22;11828;51.508;18.118;2022-11-12T00:59:18;24.80;30.20
23311;DHT22;11828;51.508;18.118;2022-11-12T01:01:44;24.60;30.10
23311;DHT22;11828;51.508;18.118;2022-11-12T01:04:10;24.60;30.30
23311;DHT22;11828;51.508;18.118;2022-11-12T01:06:38;24.60;30.20
23311;DHT22;11828;51.508;18.118;2022-11-12T01:09:08;24.60;30.30
23311;DHT22;11828;51.508;18.118;2022-11-12T01:11:35;24.60;30.40
23311;DHT22;11828;51.508;18.118;2022-11-12T01:14:03;24.60;30.20
23311;DHT22;11828;51.508;18.118;2022-11-12T01:16:35;24.60;30.30
23311;DHT22;11828;51.508;18.118;2022-11-12T01:19:04;24.60;30.30
23311;DHT22;11828;51.508;18.118;2022-11-12T01:21:37;24.60;30.30
23311;DHT22;11828;51.508;18.118;2022-11-12T01:24:04;24.60;30.40
23311;DHT22;11828;51.508;18.118;2022-11-12T01:26:31;24.60;30.50
23311;DHT22;11828;51.508;18.118;2022-11-12T01:28:57;24.70;30.60
23311;DHT22;11828;51.508;18.118;2022-11-12T01:31:25;24.60;30.50
23311;DHT22;11828;51.508;18.118;2022-11-12T01:33:58;24.70;30.30
23311;DHT22;11828;51.508;18.118;2022-11-12T01:36:29;24.80;30.30
23311;DHT22;11828;51.508;18.118;2022-11-12T01:38:56;24.70;30.40
23311;DHT22;11828;51.508;18.118;2022-11-12T01:41:26;24.80;30.40
23311;DHT22;11828;51.508;18.118;2022-11-12T01:44:17;24.80;30.40
23311;DHT22;11828;51.508;18.118;2022-11-12T01:46:50;24.70;30.20
23311;DHT22;11828;51.508;18.118;2022-11-12T01:49:40;24.70;30.00
23311;DHT22;11828;51.508;18.118;2022-11-12T01:52:20;24.70;30.00
23311;DHT22;11828;51.508;18.118;2022-11-12T01:54:52;24.70;30.00
23311;DHT22;11828;51.508;18.118;2022-11-12T01:57:24;24.70;30.20
23311;DHT22;11828;51.508;18.118;2022-11-12T01:59:57;24.80;30.10
23311;DHT22;11828;51.508;18.118;2022-11-12T02:02:27;24.90;30.10
23311;DHT22;11828;51.508;18.118;2022-11-12T02:04:54;24.90;30.10
23311;DHT22;11828;51.508;18.118;2022-11-12T02:07:22;24.90;30.20
23311;DHT22;11828;51.508;18.118;2022-11-12T02:09:48;25.00;30.10
23311;DHT22;11828;51.508;18.118;2022-11-12T02:12:14;25.00;30.10
23311;DHT22;11828;51.508;18.118;2022-11-12T02:15:02;25.00;30.00
23311;DHT22;11828;51.508;18.118;2022-11-12T02:17:28;25.00;30.00
23311;DHT22;11828;51.508;18.118;2022-11-12T02:19:57;24.90;29.90
23311;DHT22;11828;51.508;18.118;2022-11-12T02:22:24;24.90;29.80
23311;DHT22;11828;51.508;18.118;2022-11-12T02:24:50;24.80;29.80
23311;DHT22;11828;51.508;18.118;2022-11-12T02:27:16;24.80;30.00
23311;DHT22;11828;51.508;18.118;2022-11-12T02:29:42;24.70;30.10
23311;DHT22;11828;51.508;18.118;2022-11-12T02:32:12;24.80;30.40
23311;DHT22;11828;51.508;18.118;2022-11-12T02:34:39;24.80;30.20
23311;DHT22;11828;51.508;18.118;2022-11-12T02:37:06;24.80;30.40
23311;DHT22;11828;51.508;18.118;2022-11-12T02:39:32;24.80;30.10
23311;DHT22;11828;51.508;18.118;2022-11-12T02:41:58;24.70;29.90
23311;DHT22;11828;51.508;18.118;2022-11-12T02:44:24;24.70;29.90
23311;DHT22;11828;51.508;18.118;2022-11-12T02:46:50;24.60;29.80
23311;DHT22;11828;51.508;18.118;2022-11-12T02:49:17;24.60;29.90
23311;DHT22;11828;51.508;18.118;2022-11-12T02:51:43;24.60;29.90
23311;DHT22;11828;51.508;18.118;2022-11-12T02:54:09;24.60;30.00
23311;DHT22;11828;51.508;18.118;2022-11-12T02:56:35;24.50;30.10
23311;DHT22;11828;51.508;18.118;2022-11-12T02:59:01;24.50;30.10
23311;DHT22;11828;51.508;18.118;2022-11-12T03:01:27;24.40;30.00
23311;DHT22;11828;51.508;18.118;2022-11-12T03:03:53;24.40;30.00
23311;DHT22;11828;51.508;18.118;2022-11-12T03:06:19;24.30;30.00
23311;DHT22;11828;51.508;18.118;2022-11-12T03:08:45;24.30;30.00
23311;DHT22;11828;51.508;18.118;2022-11-12T03:11:14;24.40;30.00
23311;DHT22;11828;51.508;18.118;2022-11-12T03:13:41;24.40;30.00
23311;DHT22;11828;51.508;18.118;2022-11-12T03:16:08;24.30;30.00
23311;DHT22;11828;51.508;18.118;2022-11-12T03:18:34;24.10;30.20
23311;DHT22;11828;51.508;18.118;2022-11-12T03:21:00;24.10;30.50
23311;DHT22;11828;51.508;18.118;2022-11-12T03:23:27;24.00;31.40
23311;DHT22;11828;51.508;18.118;2022-11-12T03:25:53;24.00;30.80
23311;DHT22;11828;51.508;18.118;2022-11-12T03:28:19;24.10;30.70
23311;DHT22;11828;51.508;18.118;2022-11-12T03:30:45;24.20;30.70
23311;DHT22;11828;51.508;18.118;2022-11-12T03:33:13;24.20;30.80
23311;DHT22;11828;51.508;18.118;2022-11-12T03:35:40;24.30;30.80
23311;DHT22;11828;51.508;18.118;2022-11-12T03:38:06;24.20;30.70
23311;DHT22;11828;51.508;18.118;2022-11-12T03:40:34;24.20;30.70
23311;DHT22;11828;51.508;18.118;2022-11-12T03:43:00;24.10;30.70
23311;DHT22;11828;51.508;18.118;2022-11-12T03:45:27;24.10;30.80
23311;DHT22;11828;51.508;18.118;2022-11-12T03:47:54;23.90;30.80
23311;DHT22;11828;51.508;18.118;2022-11-12T03:50:25;23.80;31.40
23311;DHT22;11828;51.508;18.118;2022-11-12T03:52:55;23.80;30.70
23311;DHT22;11828;51.508;18.118;2022-11-12T03:55:24;23.70;30.70
23311;DHT22;11828;51.508;18.118;2022-11-12T03:57:52;23.50;30.80
23311;DHT22;11828;51.508;18.118;2022-11-12T04:00:19;23.40;31.30
23311;DHT22;11828;51.508;18.118;2022-11-12T04:02:46;23.30;31.40
23311;DHT22;11828;51.508;18.118;2022-11-12T04:05:13;23.40;31.50
23311;DHT22;11828;51.508;18.118;2022-11-12T04:08:14;23.50;31.30
23311;DHT22;11828;51.508;18.118;2022-11-12T04:11:09;23.60;31.10
23311;DHT22;11828;51.508;18.118;2022-11-12T04:13:41;23.70;30.40
23311;DHT22;11828;51.508;18.118;2022-11-12T04:16:11;23.90;30.30
23311;DHT22;11828;51.508;18.118;2022-11-12T04:19:00;24.00;30.10
23311;DHT22;11828;51.508;18.118;2022-11-12T04:21:54;24.10;30.00
23311;DHT22;11828;51.508;18.118;2022-11-12T04:24:28;24.10;30.40
23311;DHT22;11828;51.508;18.118;2022-11-12T04:27:23;24.10;30.90
23311;DHT22;11828;51.508;18.118;2022-11-12T04:29:53;24.00;30.10
23311;DHT22;11828;51.508;18.118;2022-11-12T04:32:48;23.80;30.00
23311;DHT22;11828;51.508;18.118;2022-11-12T04:35:15;23.70;29.90
23311;DHT22;11828;51.508;18.118;2022-11-12T04:37:43;23.60;29.80
23311;DHT22;11828;51.508;18.118;2022-11-12T04:40:15;23.60;29.90
23311;DHT22;11828;51.508;18.118;2022-11-12T04:43:07;23.50;30.00
23311;DHT22;11828;51.508;18.118;2022-11-12T04:45:54;23.40;30.00
23311;DHT22;11828;51.508;18.118;2022-11-12T04:48:21;23.40;30.10
23311;DHT22;11828;51.508;18.118;2022-11-12T04:50:58;23.30;30.00
23311;DHT22;11828;51.508;18.118;2022-11-12T04:53:27;23.40;29.90
23311;DHT22;11828;51.508;18.118;2022-11-12T04:55:56;23.50;29.90
23311;DHT22;11828;51.508;18.118;2022-11-12T04:58:23;23.50;30.00
23311;DHT22;11828;51.508;18.118;2022-11-12T05:00:50;23.40;30.00
23311;DHT22;11828;51.508;18.118;2022-11-12T05:03:16;23.30;30.40
23311;DHT22;11828;51.508;18.118;2022-11-12T05:05:42;23.20;31.10
23311;DHT22;11828;51.508;18.118;2022-11-12T05:08:09;23.20;31.10
23311;DHT22;11828;51.508;18.118;2022-11-12T05:10:35;23.10;30.90
23311;DHT22;11828;51.508;18.118;2022-11-12T05:13:01;22.90;30.90
23311;DHT22;11828;51.508;18.118;2022-11-12T05:15:27;22.70;30.90
23311;DHT22;11828;51.508;18.118;2022-11-12T05:17:53;22.60;30.90
23311;DHT22;11828;51.508;18.118;2022-11-12T05:20:19;22.50;31.00
23311;DHT22;11828;51.508;18.118;2022-11-12T05:22:45;22.40;31.20
23311;DHT22;11828;51.508;18.118;2022-11-12T05:25:11;22.40;31.10
23311;DHT22;11828;51.508;18.118;2022-11-12T05:27:37;22.40;31.20
23311;DHT22;11828;51.508;18.118;2022-11-12T05:30:03;22.50;31.30
23311;DHT22;11828;51.508;18.118;2022-11-12T05:32:30;22.60;31.30
23311;DHT22;11828;51.508;18.118;2022-11-12T05:34:56;22.60;31.70
23311;DHT22;11828;51.508;18.118;2022-11-12T05:37:22;22.60;30.90
23311;DHT22;11828;51.508;18.118;2022-11-12T05:39:48;22.50;30.70
23311;DHT22;11828;51.508;18.118;2022-11-12T05:42:14;22.40;30.80
23311;DHT22;11828;51.508;18.118;2022-11-12T05:44:40;22.20;30.70
23311;DHT22;11828;51.508;18.118;2022-11-12T05:47:06;22.10;30.60
23311;DHT22;11828;51.508;18.118;2022-11-12T05:49:33;22.10;30.70
23311;DHT22;11828;51.508;18.118;2022-11-12T05:51:59;21.90;30.80
23311;DHT22;11828;51.508;18.118;2022-11-12T05:54:25;21.90;30.90
23311;DHT22;11828;51.508;18.118;2022-11-12T05:56:52;22.00;30.90
23311;DHT22;11828;51.508;18.118;2022-11-12T05:59:18;22.00;30.90
23311;DHT22;11828;51.508;18.118;2022-11-12T06:01:44;22.00;30.70
23311;DHT22;11828;51.508;18.118;2022-11-12T06:04:14;22.00;30.60
23311;DHT22;11828;51.508;18.118;2022-11-12T06:06:42;22.00;30.60
23311;DHT22;11828;51.508;18.118;2022-11-12T06:09:09;22.00;30.50
23311;DHT22;11828;51.508;18.118;2022-11-12T06:11:35;22.00;30.70
23311;DHT22;11828;51.508;18.118;2022-11-12T06:14:02;21.90;30.80
23311;DHT22;11828;51.508;18.118;2022-11-12T06:16:29;21.90;30.80
23311;DHT22;11828;51.508;18.118;2022-11-12T06:18:55;22.10;30.80
23311;DHT22;11828;51.508;18.118;2022-11-12T06:21:22;22.20;30.60
23311;DHT22;11828;51.508;18.118;2022-11-12T06:23:50;22.40;30.70
23311;DHT22;11828;51.508;18.118;2022-11-12T06:26:19;22.50;30.50
23311;DHT22;11828;51.508;18.118;2022-11-12T06:28:46;22.60;30.50
23311;DHT22;11828;51.508;18.118;2022-11-12T06:31:13;22.70;31.10
23311;DHT22;11828;51.508;18.118;2022-11-12T06:33:41;22.60;30.20
23311;DHT22;11828;51.508;18.118;2022-11-12T06:36:09;22.70;30.20
23311;DHT22;11828;51.508;18.118;2022-11-12T06:38:37;22.70;30.50
23311;DHT22;11828;51.508;18.118;2022-11-12T06:41:05;22.60;30.60
23311;DHT22;11828;51.508;18.118;2022-11-12T06:43:33;22.70;30.80
23311;DHT22;11828;51.508;18.118;2022-11-12T06:46:01;22.70;30.60
23311;DHT22;11828;51.508;18.118;2022-11-12T06:48:32;22.70;30.70
23311;DHT22;11828;51.508;18.118;2022-11-12T06:51:09;22.80;30.60
23311;DHT22;11828;51.508;18.118;2022-11-12T06:53:42;22.80;30.60
23311;DHT22;11828;51.508;18.118;2022-11-12T06:56:09;22.90;30.50
23311;DHT22;11828;51.508;18.118;2022-11-12T06:58:35;22.90;30.50
23311;DHT22;11828;51.508;18.118;2022-11-12T07:01:12;22.80;30.60
23311;DHT22;11828;51.508;18.118;2022-11-12T07:03:40;22.70;30.80
23311;DHT22;11828;51.508;18.118;2022-11-12T07:06:11;22.40;31.20
23311;DHT22;11828;51.508;18.118;2022-11-12T07:08:39;22.40;31.40
23311;DHT22;11828;51.508;18.118;2022-11-12T07:11:06;22.30;31.70
23311;DHT22;11828;51.508;18.118;2022-11-12T07:13:33;22.20;31.80
23311;DHT22;11828;51.508;18.118;2022-11-12T07:16:01;22.20;31.90
23311;DHT22;11828;51.508;18.118;2022-11-12T07:18:28;22.30;31.80
23311;DHT22;11828;51.508;18.118;2022-11-12T07:21:21;22.40;31.80
23311;DHT22;11828;51.508;18.118;2022-11-12T07:23:47;22.40;31.90
23311;DHT22;11828;51.508;18.118;2022-11-12T07:26:19;22.40;31.90
23311;DHT22;11828;51.508;18.118;2022-11-12T07:28:47;22.50;32.00
23311;DHT22;11828;51.508;18.118;2022-11-12T07:31:15;22.70;32.20
23311;DHT22;11828;51.508;18.118;2022-11-12T07:33:43;22.60;32.00
23311;DHT22;11828;51.508;18.118;2022-11-12T07:36:15;22.60;32.20
23311;DHT22;11828;51.508;18.118;2022-11-12T07:38:43;22.70;32.30
23311;DHT22;11828;51.508;18.118;2022-11-12T07:41:14;22.60;32.20
23311;DHT22;11828;51.508;18.118;2022-11-12T07:43:47;22.30;32.40
23311;DHT22;11828;51.508;18.118;2022-11-12T07:46:25;22.40;32.80
23311;DHT22;11828;51.508;18.118;2022-11-12T07:48:52;22.40;32.90
23311;DHT22;11828;51.508;18.118;2022-11-12T07:51:22;22.40;33.00
23311;DHT22;11828;51.508;18.118;2022-11-12T07:53:52;22.50;33.20
23311;DHT22;11828;51.508;18.118;2022-11-12T07:56:22;22.70;33.00
23311;DHT22;11828;51.508;18.118;2022-11-12T07:58:49;22.90;32.90
23311;DHT22;11828;51.508;18.118;2022-11-12T08:01:37;23.00;32.90
23311;DHT22;11828;51.508;18.118;2022-11-12T08:04:06;23.00;32.90
23311;DHT22;11828;51.508;18.118;2022-11-12T08:06:34;23.10;32.90
23311;DHT22;11828;51.508;18.118;2022-11-12T08:09:05;23.10;32.90
23311;DHT22;11828;51.508;18.118;2022-11-12T08:11:32;23.10;33.00
23311;DHT22;11828;51.508;18.118;2022-11-12T08:13:59;23.10;33.10
23311;DHT22;11828;51.508;18.118;2022-11-12T08:16:25;23.10;33.30
23311;DHT22;11828;51.508;18.118;2022-11-12T08:18:52;23.20;33.40
23311;DHT22;11828;51.508;18.118;2022-11-12T08:21:18;23.20;33.40
23311;DHT22;11828;51.508;18.118;2022-11-12T08:23:45;23.20;33.50
23311;DHT22;11828;51.508;18.118;2022-11-12T08:26:14;23.20;33.70
23311;DHT22;11828;51.508;18.118;2022-11-12T08:28:42;23.30;33.90
23311;DHT22;11828;51.508;18.118;2022-11-12T08:31:10;23.50;33.90
23311;DHT22;11828;51.508;18.118;2022-11-12T08:33:38;23.50;33.80
23311;DHT22;11828;51.508;18.118;2022-11-12T08:36:07;23.60;34.00
23311;DHT22;11828;51.508;18.118;2022-11-12T08:38:35;23.80;34.10
23311;DHT22;11828;51.508;18.118;2022-11-12T08:41:02;23.80;34.20
23311;DHT22;11828;51.508;18.118;2022-11-12T08:43:30;23.90;34.40
23311;DHT22;11828;51.508;18.118;2022-11-12T08:45:58;24.00;34.30
23311;DHT22;11828;51.508;18.118;2022-11-12T08:48:26;24.20;34.40
23311;DHT22;11828;51.508;18.118;2022-11-12T08:50:53;24.30;34.40
23311;DHT22;11828;51.508;18.118;2022-11-12T08:53:21;24.50;34.40
23311;DHT22;11828;51.508;18.118;2022-11-12T08:55:51;24.70;34.30
23311;DHT22;11828;51.508;18.118;2022-11-12T08:58:18;24.80;34.00
23311;DHT22;11828;51.508;18.118;2022-11-12T09:00:44;25.00;34.00
23311;DHT22;11828;51.508;18.118;2022-11-12T09:03:16;25.00;33.80
23311;DHT22;11828;51.508;18.118;2022-11-12T09:05:44;25.00;33.70
23311;DHT22;11828;51.508;18.118;2022-11-12T09:08:18;25.10;33.80
23311;DHT22;11828;51.508;18.118;2022-11-12T09:10:47;25.20;33.80
23311;DHT22;11828;51.508;18.118;2022-11-12T09:13:13;25.20;33.80
23311;DHT22;11828;51.508;18.118;2022-11-12T09:15:41;25.30;33.80
23311;DHT22;11828;51.508;18.118;2022-11-12T09:18:12;25.50;33.90
23311;DHT22;11828;51.508;18.118;2022-11-12T09:20:39;25.60;33.70
23311;DHT22;11828;51.508;18.118;2022-11-12T09:23:08;25.90;33.60
23311;DHT22;11828;51.508;18.118;2022-11-12T09:25:36;26.10;33.40
23311;DHT22;11828;51.508;18.118;2022-11-12T09:28:17;26.20;33.30
23311;DHT22;11828;51.508;18.118;2022-11-12T09:30:47;26.40;33.20
23311;DHT22;11828;51.508;18.118;2022-11-12T09:33:16;26.60;33.00
23311;DHT22;11828;51.508;18.118;2022-11-12T09:35:44;26.70;32.80
23311;DHT22;11828;51.508;18.118;2022-11-12T09:38:11;26.70;32.70
23311;DHT22;11828;51.508;18.118;2022-11-12T09:43:33;26.80;32.70
23311;DHT22;11828;51.508;18.118;2022-11-12T09:46:07;26.90;32.60
23311;DHT22;11828;51.508;18.118;2022-11-12T09:48:50;27.00;32.40
23311;DHT22;11828;51.508;18.118;2022-11-12T09:51:32;27.00;32.40
23311;DHT22;11828;51.508;18.118;2022-11-12T09:54:27;27.10;32.50
23311;DHT22;11828;51.508;18.118;2022-11-12T09:56:55;27.20;32.30
23311;DHT22;11828;51.508;18.118;2022-11-12T09:59:25;27.30;32.30
23311;DHT22;11828;51.508;18.118;2022-11-12T10:14:06;27.70;31.80
23311;DHT22;11828;51.508;18.118;2022-11-12T10:22:42;27.80;31.60
23311;DHT22;11828;51.508;18.118;2022-11-12T10:25:23;27.80;31.60
23311;DHT22;11828;51.508;18.118;2022-11-12T10:27:54;27.80;31.70
23311;DHT22;11828;51.508;18.118;2022-11-12T10:30:22;27.90;31.70
23311;DHT22;11828;51.508;18.118;2022-11-12T10:32:50;28.00;32.10
23311;DHT22;11828;51.508;18.118;2022-11-12T10:35:20;28.10;31.50
23311;DHT22;11828;51.508;18.118;2022-11-12T10:37:58;28.20;31.40
23311;DHT22;11828;51.508;18.118;2022-11-12T10:40:35;28.30;31.40
23311;DHT22;11828;51.508;18.118;2022-11-12T10:45:46;28.20;31.20
23311;DHT22;11828;51.508;18.118;2022-11-12T10:50:53;28.30;31.40
23311;DHT22;11828;51.508;18.118;2022-11-12T10:53:37;28.30;31.40
23311;DHT22;11828;51.508;18.118;2022-11-12T10:56:38;28.20;31.30
23311;DHT22;11828;51.508;18.118;2022-11-12T10:59:23;28.30;31.40
23311;DHT22;11828;51.508;18.118;2022-11-12T11:01:58;28.40;31.30
23311;DHT22;11828;51.508;18.118;2022-11-12T11:04:32;28.40;31.30
23311;DHT22;11828;51.508;18.118;2022-11-12T11:07:21;28.40;31.30
23311;DHT22;11828;51.508;18.118;2022-11-12T11:09:55;28.50;31.00
23311;DHT22;11828;51.508;18.118;2022-11-12T11:12:25;28.50;31.00
23311;DHT22;11828;51.508;18.118;2022-11-12T11:17:33;28.60;30.90
23311;DHT22;11828;51.508;18.118;2022-11-12T11:19:59;28.70;31.00
23311;DHT22;11828;51.508;18.118;2022-11-12T11:22:44;28.70;30.80
23311;DHT22;11828;51.508;18.118;2022-11-12T11:25:19;28.70;30.80
23311;DHT22;11828;51.508;18.118;2022-11-12T11:34:15;28.70;30.50
23311;DHT22;11828;51.508;18.118;2022-11-12T11:37:23;28.80;30.60
23311;DHT22;11828;51.508;18.118;2022-11-12T11:40:19;28.80;30.50
23311;DHT22;11828;51.508;18.118;2022-11-12T11:46:09;28.90;30.30
23311;DHT22;11828;51.508;18.118;2022-11-12T11:49:05;28.90;30.30
23311;DHT22;11828;51.508;18.118;2022-11-12T11:51:57;28.90;30.10
23311;DHT22;11828;51.508;18.118;2022-11-12T11:57:26;28.80;30.10
23311;DHT22;11828;51.508;18.118;2022-11-12T12:00:18;28.70;30.10
23311;DHT22;11828;51.508;18.118;2022-11-12T12:02:53;28.60;30.30
23311;DHT22;11828;51.508;18.118;2022-11-12T12:08:28;28.40;30.50
23311;DHT22;11828;51.508;18.118;2022-11-12T12:11:46;28.40;30.70
23311;DHT22;11828;51.508;18.118;2022-11-12T12:20:49;28.40;30.50
23311;DHT22;11828;51.508;18.118;2022-11-12T12:23:27;28.30;30.60
23311;DHT22;11828;51.508;18.118;2022-11-12T12:25:59;28.30;30.70
23311;DHT22;11828;51.508;18.118;2022-11-12T12:28:36;28.30;30.60
23311;DHT22;11828;51.508;18.118;2022-11-12T12:31:10;28.20;30.60
23311;DHT22;11828;51.508;18.118;2022-11-12T12:34:00;28.20;30.70
23311;DHT22;11828;51.508;18.118;2022-11-12T12:36:35;28.20;30.80
23311;DHT22;11828;51.508;18.118;2022-11-12T12:39:24;28.20;30.90
23311;DHT22;11828;51.508;18.118;2022-11-12T12:42:01;28.10;30.90
23311;DHT22;11828;51.508;18.118;2022-11-12T12:44:40;28.10;31.00
23311;DHT22;11828;51.508;18.118;2022-11-12T12:47:40;28.10;31.10
23311;DHT22;11828;51.508;18.118;2022-11-12T12:50:13;28.10;31.10
23311;DHT22;11828;51.508;18.118;2022-11-12T12:53:04;28.10;31.10
23311;DHT22;11828;51.508;18.118;2022-11-12T12:55:44;28.10;31.10
23311;DHT22;11828;51.508;18.118;2022-11-12T12:58:27;28.10;31.10
23311;DHT22;11828;51.508;18.118;2022-11-12T13:01:02;28.10;31.00
23311;DHT22;11828;51.508;18.118;2022-11-12T13:08:54;27.90;31.00
23311;DHT22;11828;51.508;18.118;2022-11-12T13:17:04;27.90;31.20
23311;DHT22;11828;51.508;18.118;2022-11-12T13:35:26;27.50;31.40
23311;DHT22;11828;51.508;18.118;2022-11-12T13:40:50;27.50;31.20
23311;DHT22;11828;51.508;18.118;2022-11-12T13:46:23;27.40;31.10
23311;DHT22;11828;51.508;18.118;2022-11-12T13:49:05;27.50;31.20
23311;DHT22;11828;51.508;18.118;2022-11-12T13:51:37;27.50;31.10
23311;DHT22;11828;51.508;18.118;2022-11-12T13:54:27;27.50;31.00
23311;DHT22;11828;51.508;18.118;2022-11-12T13:57:11;27.50;31.10
23311;DHT22;11828;51.508;18.118;2022-11-12T13:59:38;27.50;31.00
23311;DHT22;11828;51.508;18.118;2022-11-12T14:02:21;27.50;31.60
23311;DHT22;11828;51.508;18.118;2022-11-12T14:04:49;27.50;31.00
23311;DHT22;11828;51.508;18.118;2022-11-12T14:10:18;27.50;31.00
23311;DHT22;11828;51.508;18.118;2022-11-12T14:21:31;27.60;31.00
23311;DHT22;11828;51.508;18.118;2022-11-12T14:24:01;27.70;31.00
23311;DHT22;11828;51.508;18.118;2022-11-12T14:26:40;27.70;31.00
23311;DHT22;11828;51.508;18.118;2022-11-12T14:29:16;27.70;31.00
23311;DHT22;11828;51.508;18.118;2022-11-12T14:31:43;27.80;31.10
23311;DHT22;11828;51.508;18.118;2022-11-12T14:34:27;27.70;30.90
23311;DHT22;11828;51.508;18.118;2022-11-12T14:36:54;27.70;31.10
23311;DHT22;11828;51.508;18.118;2022-11-12T14:39:26;27.60;31.70
23311;DHT22;11828;51.508;18.118;2022-11-12T14:41:55;27.60;31.00
23311;DHT22;11828;51.508;18.118;2022-11-12T14:44:26;27.70;31.00
23311;DHT22;11828;51.508;18.118;2022-11-12T14:46:57;27.70;31.00
23311;DHT22;11828;51.508;18.118;2022-11-12T14:49:41;27.60;31.00
23311;DHT22;11828;51.508;18.118;2022-11-12T14:52:15;27.60;31.10
23311;DHT22;11828;51.508;18.118;2022-11-12T14:55:22;27.60;31.20
23311;DHT22;11828;51.508;18.118;2022-11-12T14:57:50;27.50;31.10
23311;DHT22;11828;51.508;18.118;2022-11-12T15:02:58;27.50;31.20
23311;DHT22;11828;51.508;18.118;2022-11-12T15:05:25;27.50;31.30
23311;DHT22;11828;51.508;18.118;2022-11-12T15:08:01;27.50;31.30
23311;DHT22;11828;51.508;18.118;2022-11-12T15:10:43;27.50;31.30
23311;DHT22;11828;51.508;18.118;2022-11-12T15:13:13;27.50;31.30
23311;DHT22;11828;51.508;18.118;2022-11-12T15:15:51;27.40;31.20
23311;DHT22;11828;51.508;18.118;2022-11-12T15:18:21;27.40;31.10
23311;DHT22;11828;51.508;18.118;2022-11-12T15:23:30;27.30;31.30
23311;DHT22;11828;51.508;18.118;2022-11-12T15:26:00;27.30;31.30
23311;DHT22;11828;51.508;18.118;2022-11-12T15:28:27;27.20;31.40
23311;DHT22;11828;51.508;18.118;2022-11-12T15:31:14;27.10;31.40
23311;DHT22;11828;51.508;18.118;2022-11-12T15:33:42;27.00;31.60
23311;DHT22;11828;51.508;18.118;2022-11-12T15:36:16;27.00;31.60
23311;DHT22;11828;51.508;18.118;2022-11-12T15:38:51;26.90;31.70
23311;DHT22;11828;51.508;18.118;2022-11-12T15:41:29;26.80;32.00
23311;DHT22;11828;51.508;18.118;2022-11-12T15:43:55;26.90;31.90
23311;DHT22;11828;51.508;18.118;2022-11-12T15:46:21;27.00;31.90
23311;DHT22;11828;51.508;18.118;2022-11-12T15:48:47;27.00;31.80
23311;DHT22;11828;51.508;18.118;2022-11-12T15:51:15;27.10;32.30
23311;DHT22;11828;51.508;18.118;2022-11-12T15:53:41;27.10;31.70
23311;DHT22;11828;51.508;18.118;2022-11-12T15:56:11;27.10;31.70
23311;DHT22;11828;51.508;18.118;2022-11-12T15:58:39;27.10;31.70
23311;DHT22;11828;51.508;18.118;2022-11-12T16:01:05;27.10;31.70
23311;DHT22;11828;51.508;18.118;2022-11-12T16:03:31;27.10;31.60
23311;DHT22;11828;51.508;18.118;2022-11-12T16:05:57;27.20;31.60
23311;DHT22;11828;51.508;18.118;2022-11-12T16:08:24;27.20;31.60
23311;DHT22;11828;51.508;18.118;2022-11-12T16:10:50;27.20;31.70
23311;DHT22;11828;51.508;18.118;2022-11-12T16:13:28;27.30;31.60
23311;DHT22;11828;51.508;18.118;2022-11-12T16:15:56;27.40;31.50
23311;DHT22;11828;51.508;18.118;2022-11-12T16:18:22;27.50;31.50
23311;DHT22;11828;51.508;18.118;2022-11-12T16:20:48;27.60;31.30
23311;DHT22;11828;51.508;18.118;2022-11-12T16:23:15;27.60;31.10
23311;DHT22;11828;51.508;18.118;2022-11-12T16:25:41;27.60;31.00
23311;DHT22;11828;51.508;18.118;2022-11-12T16:28:16;27.70;31.10
23311;DHT22;11828;51.508;18.118;2022-11-12T16:30:44;27.70;31.20
23311;DHT22;11828;51.508;18.118;2022-11-12T16:33:12;27.70;31.10
23311;DHT22;11828;51.508;18.118;2022-11-12T16:35:39;27.70;31.00
23311;DHT22;11828;51.508;18.118;2022-11-12T16:38:15;27.70;31.00
23311;DHT22;11828;51.508;18.118;2022-11-12T16:40:43;27.60;30.90
23311;DHT22;11828;51.508;18.118;2022-11-12T16:43:09;27.60;30.90
23311;DHT22;11828;51.508;18.118;2022-11-12T16:45:40;27.60;31.00
23311;DHT22;11828;51.508;18.118;2022-11-12T16:48:17;27.60;31.20
23311;DHT22;11828;51.508;18.118;2022-11-12T16:50:44;27.60;31.20
23311;DHT22;11828;51.508;18.118;2022-11-12T16:53:11;27.60;31.20
23311;DHT22;11828;51.508;18.118;2022-11-12T16:55:37;27.60;31.20
23311;DHT22;11828;51.508;18.118;2022-11-12T16:58:03;27.60;31.10
23311;DHT22;11828;51.508;18.118;2022-11-12T17:00:29;27.60;31.10
23311;DHT22;11828;51.508;18.118;2022-11-12T17:02:55;27.60;31.10
23311;DHT22;11828;51.508;18.118;2022-11-12T17:05:23;27.60;31.20
23311;DHT22;11828;51.508;18.118;2022-11-12T17:07:54;27.60;31.10
23311;DHT22;11828;51.508;18.118;2022-11-12T17:10:22;27.50;31.20
23311;DHT22;11828;51.508;18.118;2022-11-12T17:12:49;27.50;31.20
23311;DHT22;11828;51.508;18.118;2022-11-12T17:15:16;27.50;31.80
23311;DHT22;11828;51.508;18.118;2022-11-12T17:17:42;27.40;31.10
23311;DHT22;11828;51.508;18.118;2022-11-12T17:20:08;27.50;31.20